| time (UTC) | temp F | wind direction | speed MPH | gust MPH | rain 1hr in | rain 24hr in | rain mn in | humidity % | barometer mb |
| 20260503021325 | 71 | 13 | 0.0 | 6.0 | 0.00 | 0.00 | 0.00 | 60 | 1006.6 |
| 20260503020343 | 71 | 351 | 0.0 | 5.0 | 0.00 | 0.00 | 0.00 | 60 | 1006.6 |
| 20260503015354 | 72 | 15 | 0.0 | 2.0 | 0.00 | 0.00 | 0.00 | 63 | 1006.6 |
| 20260503014325 | 72 | 17 | 0.0 | 4.0 | 0.00 | 0.00 | 0.00 | 57 | 1006.6 |
| 20260503013321 | 72 | 65 | 0.0 | 4.0 | 0.00 | 0.00 | 0.00 | 58 | 1006.6 |
| 20260503012335 | 72 | 50 | 0.0 | 2.0 | 0.00 | 0.00 | 0.00 | 58 | 1006.6 |
| 20260503011332 | 71 | 51 | 0.0 | 3.0 | 0.00 | 0.00 | 0.00 | 60 | 1006.7 |
| 20260503010348 | 73 | 5 | 0.0 | 1.0 | 0.00 | 0.00 | 0.00 | 60 | 1006.7 |
| 20260503005316 | 74 | 327 | 0.0 | 4.0 | 0.00 | 0.00 | 0.00 | 54 | 1006.6 |
| 20260503004352 | 72 | 17 | 0.0 | 4.0 | 0.00 | 0.00 | 0.00 | 56 | 1006.7 |
| 20260503003321 | 72 | 355 | 1.0 | 7.0 | 0.00 | 0.00 | 0.00 | 56 | 1006.7 |
| 20260503002318 | 72 | 26 | 1.0 | 8.0 | 0.00 | 0.00 | 0.00 | 56 | 1006.7 |
| 20260503001330 | 72 | 286 | 3.0 | 7.0 | 0.00 | 0.00 | 0.00 | 56 | 1007.0 |
| 20260503000322 | 72 | 32 | 1.0 | 6.0 | 0.00 | 0.00 | 0.00 | 57 | 1007.0 |
| 20260502235332 | 71 | 121 | 0.0 | 3.0 | 0.00 | 0.00 | 0.00 | 58 | 1007.2 |
| 20260502234326 | 71 | 100 | 0.0 | 6.0 | 0.00 | 0.00 | 0.00 | 59 | 1007.4 |
| 20260502233357 | 70 | 329 | 1.0 | 3.0 | 0.00 | 0.00 | 0.00 | 57 | 1007.4 |
| 20260502232329 | 70 | 31 | 1.0 | 5.0 | 0.00 | 0.00 | 0.00 | 59 | 1007.7 |
| 20260502231321 | 70 | 153 | 0.0 | 1.0 | 0.00 | 0.00 | 0.00 | 62 | 1007.9 |
| 20260502230353 | 69 | 298 | 0.0 | 5.0 | 0.00 | 0.00 | 0.00 | 64 | 1007.9 |
| 20260502225324 | 69 | 355 | 1.0 | 7.0 | 0.00 | 0.00 | 0.00 | 60 | 1008.2 |
| 20260502224323 | 68 | 5 | 1.0 | 6.0 | 0.00 | 0.00 | 0.00 | 64 | 1008.3 |
| 20260502223335 | 68 | 207 | 0.0 | 9.0 | 0.00 | 0.00 | 0.00 | 64 | 1008.3 |
| 20260502222325 | 68 | 309 | 0.0 | 8.0 | 0.00 | 0.00 | 0.00 | 61 | 1008.8 |
| 20260502221341 | 68 | 305 | 2.0 | 8.0 | 0.00 | 0.00 | 0.00 | 62 | 1008.9 |
| 20260502220355 | 67 | 269 | 2.0 | 6.0 | 0.00 | 0.00 | 0.00 | 64 | 1008.9 |
| 20260502215324 | 65 | 337 | 0.0 | 7.0 | 0.00 | 0.00 | 0.00 | 65 | 1009.2 |
| 20260502214315 | 65 | 247 | 2.0 | 6.0 | 0.00 | 0.00 | 0.00 | 65 | 1009.3 |
| 20260502213327 | 65 | 11 | 3.0 | 6.0 | 0.00 | 0.00 | 0.00 | 65 | 1009.3 |
| 20260502212325 | 65 | 360 | 1.0 | 7.0 | 0.00 | 0.00 | 0.00 | 64 | 1009.4 |
| 20260502211345 | 65 | 17 | 0.0 | 4.0 | 0.00 | 0.00 | 0.00 | 67 | 1009.9 |
| 20260502210356 | 65 | 214 | 1.0 | 5.0 | 0.00 | 0.00 | 0.00 | 66 | 1009.9 |
| 20260502205325 | 64 | 342 | 2.0 | 5.0 | 0.00 | 0.00 | 0.00 | 67 | 1010.0 |
| 20260502204319 | 63 | 255 | 1.0 | 4.0 | 0.00 | 0.00 | 0.00 | 68 | 1010.3 |
| 20260502203319 | 63 | 242 | 1.0 | 5.0 | 0.00 | 0.00 | 0.00 | 66 | 1010.3 |
| 20260502202315 | 62 | 278 | 2.0 | 6.0 | 0.00 | 0.00 | 0.00 | 70 | 1010.4 |
| 20260502201328 | 62 | 268 | 0.0 | 5.0 | 0.00 | 0.00 | 0.00 | 68 | 1010.6 |
| 20260502200322 | 61 | 290 | 0.0 | 3.0 | 0.00 | 0.00 | 0.00 | 70 | 1010.6 |
| 20260502195334 | 60 | 290 | 0.0 | 4.0 | 0.00 | 0.00 | 0.00 | 71 | 1010.9 |
| 20260502194329 | 60 | 360 | 2.0 | 5.0 | 0.00 | 0.00 | 0.00 | 70 | 1010.9 |
| 20260502193324 | 60 | 5 | 1.0 | 6.0 | 0.00 | 0.00 | 0.00 | 73 | 1010.9 |
| 20260502192319 | 58 | 141 | 0.0 | 4.0 | 0.00 | 0.00 | 0.00 | 76 | 1011.2 |
| 20260502191448 | 57 | 217 | 0.0 | 0.0 | 0.00 | 0.00 | 0.00 | 75 | 1011.3 |
| 20260502190320 | 57 | 215 | 0.0 | 2.0 | 0.00 | 0.00 | 0.00 | 74 | 1011.3 |
| 20260502185330 | 57 | 219 | 0.0 | 1.0 | 0.00 | 0.00 | 0.00 | 76 | 1011.3 |
| 20260502184341 | 57 | 276 | 0.0 | 0.0 | 0.00 | 0.00 | 0.00 | 74 | 1011.4 |
| 20260502183333 | 57 | 276 | 0.0 | 1.0 | 0.00 | 0.00 | 0.00 | 73 | 1011.4 |
| 20260502182327 | 57 | 275 | 0.0 | 4.0 | 0.00 | 0.00 | 0.00 | 73 | 1011.4 |
| 20260502181321 | 57 | 277 | 0.0 | 2.0 | 0.00 | 0.00 | 0.00 | 74 | 1011.5 |
| 20260502180336 | 57 | 296 | 0.0 | 5.0 | 0.00 | 0.00 | 0.00 | 74 | 1011.5 |
| 20260502170330 | 54 | 270 | 0.0 | 1.0 | 0.00 | 0.00 | 0.00 | 78 | 1012.0 |
| 20260502164326 | 53 | 272 | 0.0 | 5.0 | 0.00 | 0.00 | 0.00 | 79 | 1012.1 |
| 20260502163341 | 53 | 360 | 0.0 | 2.0 | 0.00 | 0.00 | 0.00 | 80 | 1012.1 |
| 20260502162331 | 53 | 360 | 0.0 | 1.0 | 0.00 | 0.00 | 0.00 | 79 | 1012.2 |
| 20260502161326 | 53 | 5 | 0.0 | 0.0 | 0.00 | 0.00 | 0.00 | 79 | 1012.2 |
| 20260502160347 | 53 | 5 | 0.0 | 0.0 | 0.00 | 0.00 | 0.00 | 80 | 1012.2 |
| 20260502152315 | 52 | 5 | 0.0 | 0.0 | 0.00 | 0.00 | 0.00 | 81 | 1012.1 |
| 20260502151350 | 52 | 5 | 0.0 | 0.0 | 0.00 | 0.00 | 0.00 | 82 | 1012.1 |
| 20260502150339 | 52 | 5 | 0.0 | 0.0 | 0.00 | 0.00 | 0.00 | 81 | 1012.1 |
| 20260502130334 | 51 | 5 | 0.0 | 0.0 | 0.00 | 0.00 | 0.00 | 82 | 1012.0 |
| 20260502123340 | 51 | 5 | 0.0 | 0.0 | 0.00 | 0.00 | 0.00 | 84 | 1011.9 |
| 20260502122332 | 51 | 5 | 0.0 | 0.0 | 0.00 | 0.00 | 0.00 | 83 | 1012.1 |
| 20260502121322 | 51 | 5 | 0.0 | 0.0 | 0.00 | 0.00 | 0.00 | 83 | 1012.1 |
| 20260502120334 | 51 | 5 | 0.0 | 0.0 | 0.00 | 0.00 | 0.00 | 83 | 1012.1 |
| 20260502115326 | 51 | 5 | 0.0 | 0.0 | 0.00 | 0.00 | 0.00 | 84 | 1012.1 |
| 20260502114345 | 51 | 5 | 0.0 | 0.0 | 0.00 | 0.00 | 0.00 | 84 | 1012.1 |
| 20260502113335 | 50 | 5 | 0.0 | 0.0 | 0.00 | 0.00 | 0.00 | 86 | 1012.1 |
| 20260502112348 | 50 | 5 | 0.0 | 0.0 | 0.00 | 0.00 | 0.00 | 86 | 1012.4 |
| 20260502111325 | 50 | 5 | 0.0 | 0.0 | 0.00 | 0.00 | 0.00 | 85 | 1012.2 |
| 20260502110318 | 50 | 5 | 0.0 | 0.0 | 0.00 | 0.00 | 0.00 | 85 | 1012.2 |
| 20260502105331 | 50 | 5 | 0.0 | 0.0 | 0.00 | 0.00 | 0.00 | 85 | 1012.3 |
| 20260502104322 | 50 | 5 | 0.0 | 0.0 | 0.00 | 0.00 | 0.00 | 85 | 1012.5 |
| 20260502103327 | 50 | 5 | 0.0 | 0.0 | 0.00 | 0.00 | 0.00 | 85 | 1012.5 |
| 20260502102319 | 50 | 5 | 0.0 | 0.0 | 0.00 | 0.00 | 0.00 | 84 | 1012.5 |
| 20260502101330 | 50 | 5 | 0.0 | 0.0 | 0.00 | 0.00 | 0.00 | 84 | 1012.5 |
| 20260502100345 | 50 | 5 | 0.0 | 0.0 | 0.00 | 0.00 | 0.00 | 84 | 1012.5 |
| 20260502091336 | 52 | 5 | 0.0 | 0.0 | 0.00 | 0.00 | 0.00 | 80 | 1012.8 |
| 20260502090328 | 52 | 5 | 0.0 | 0.0 | 0.00 | 0.00 | 0.00 | 79 | 1012.8 |
| 20260502071346 | 55 | 340 | 0.0 | 1.0 | 0.00 | 0.00 | 0.00 | 73 | 1013.4 |
| 20260502070318 | 55 | 344 | 0.0 | 2.0 | 0.00 | 0.00 | 0.00 | 72 | 1013.4 |
| 20260502065334 | 55 | 339 | 0.0 | 2.0 | 0.00 | 0.00 | 0.00 | 72 | 1013.3 |
| 20260502064326 | 55 | 319 | 0.0 | 6.0 | 0.00 | 0.00 | 0.00 | 70 | 1013.4 |
| 20260502063321 | 56 | 30 | 0.0 | 0.0 | 0.00 | 0.00 | 0.00 | 71 | 1013.4 |
| 20260502062335 | 56 | 35 | 0.0 | 4.0 | 0.00 | 0.00 | 0.00 | 71 | 1013.3 |
| 20260502061328 | 56 | 309 | 0.0 | 0.0 | 0.00 | 0.00 | 0.00 | 71 | 1013.4 |
| 20260502060343 | 57 | 309 | 0.0 | 1.0 | 0.00 | 0.00 | 0.00 | 70 | 1013.4 |
| 20260502055357 | 57 | 305 | 0.0 | 5.0 | 0.00 | 0.00 | 0.00 | 69 | 1013.4 |
| 20260502054326 | 57 | 319 | 0.0 | 2.0 | 0.00 | 0.00 | 0.00 | 69 | 1013.3 |
| 20260502053319 | 57 | 322 | 0.0 | 3.0 | 0.00 | 0.00 | 0.00 | 69 | 1013.3 |
| 20260502052331 | 57 | 320 | 0.0 | 4.0 | 0.00 | 0.00 | 0.00 | 69 | 1013.3 |
| 20260502051322 | 57 | 14 | 0.0 | 5.0 | 0.00 | 0.00 | 0.00 | 68 | 1013.3 |
| 20260502050335 | 58 | 348 | 0.0 | 4.0 | 0.00 | 0.00 | 0.00 | 69 | 1013.3 |
| 20260502045326 | 58 | 350 | 0.0 | 3.0 | 0.00 | 0.00 | 0.00 | 70 | 1013.1 |
| 20260502044320 | 58 | 11 | 0.0 | 5.0 | 0.00 | 0.00 | 0.00 | 69 | 1013.0 |
| 20260502043329 | 58 | 360 | 0.0 | 3.0 | 0.00 | 0.00 | 0.00 | 72 | 1013.0 |
| 20260502042321 | 59 | 348 | 0.0 | 3.0 | 0.00 | 0.00 | 0.00 | 70 | 1012.7 |
| 20260502041351 | 59 | 37 | 0.0 | 3.0 | 0.00 | 0.00 | 0.00 | 70 | 1012.5 |
| 20260502040343 | 59 | 333 | 0.0 | 0.0 | 0.00 | 0.00 | 0.00 | 71 | 1012.5 |
| 20260502035316 | 60 | 333 | 0.0 | 0.0 | 0.00 | 0.00 | 0.00 | 69 | 1012.4 |
| 20260502034328 | 60 | 332 | 0.0 | 2.0 | 0.00 | 0.00 | 0.00 | 68 | 1012.0 |
| 20260502033326 | 61 | 315 | 0.0 | 2.0 | 0.00 | 0.00 | 0.00 | 69 | 1012.0 |
| 20260502032316 | 62 | 309 | 0.0 | 6.0 | 0.00 | 0.00 | 0.00 | 67 | 1011.9 |
| 20260502031329 | 62 | 330 | 0.0 | 3.0 | 0.00 | 0.00 | 0.00 | 66 | 1011.7 |
| 20260502030319 | 63 | 336 | 0.0 | 3.0 | 0.00 | 0.00 | 0.00 | 67 | 1011.7 |
| 20260502025331 | 64 | 315 | 0.0 | 3.0 | 0.00 | 0.00 | 0.00 | 65 | 1011.6 |
| 20260502024321 | 64 | 314 | 0.0 | 6.0 | 0.00 | 0.00 | 0.00 | 64 | 1011.4 |
| 20260502023319 | 65 | 320 | 2.0 | 5.0 | 0.00 | 0.00 | 0.00 | 63 | 1011.4 |
| 20260502022331 | 65 | 327 | 0.0 | 8.0 | 0.00 | 0.00 | 0.00 | 62 | 1011.4 |